Atwood, CO

6:22 PM MDT on August 20, 2014 (GMT -0600)
Sterling Municipal | Change Station
CLOSE
Current Station
Airport
Location: Sterling Muni, Sterling, CO,
Elevation: 4039 ft
Nearby Weather Stations

Elev 4039 ft 40.62 °N, 103.26 °W | Updated 12 minutes ago

Scattered Clouds
Scattered Clouds
86 °F
Feels Like 86 °F
N
9
Wind Variable Wind from East

Today
High -- | Low -- °F
--% Chance of Precip.
Yesterday
High -- | Low -- °F
Precip. -- in
6:08 AM 7:43 PM
Waning Crescent, 18% visible
Pressure 29.83 in
Visibility 10.0 miles
Clouds Scattered Clouds 11000 ft
Heat Index 86 °F
Dew Point 61 °F
Humidity 43%
Rainfall 0.00 in
Snow Depth Not available.
UV 1 out of 12
Pollen 10.00 out of 12
Air Quality Not available.
Flu Activity Not available.
METAR KSTK 210010Z AUTO 09008KT 10SM SCT110 30/16 A2983 RMK AO2

More Conditions Fewer Conditions

Pressure 29.83 in
Visibility 10.0 miles
Clouds Scattered Clouds 11000 ft
Heat Index 86 °F
Dew Point 61 °F
Humidity 43%
Rainfall 0.00 in
Snow Depth Not available.
UV 1 out of 12
Pollen 10.00 out of 12
Air Quality Not available.
Flu Activity Not available.
METAR KSTK 210010Z AUTO 09008KT 10SM SCT110 30/16 A2983 RMK AO2

More Conditions Fewer Conditions

10-Day Weather Forecast

Almanac

Astronomy

Aug. 20, 2014 Rise Set
Actual Time 6:08 AM MDT 7:43 PM MDT
Civil Twilight 5:39 AM MDT 8:12 PM MDT
Nautical Twilight 5:04 AM MDT 8:46 PM MDT
Astronomical Twilight 4:27 AM MDT 9:23 PM MDT
Moon 1:50 AM MDT (8/20) 4:30 PM MDT (8/20)
Length of Visible Light 14h 32m
Length of Day
13h 34m
Tomorrow will be 2m 27s shorter.
Waning Crescent, 18% of the Moon is Illuminated
Today
Waning Crescent
Aug 25
New
Sep 2
First Quarter
Sep 8
Full
Sep 15
Last Quarter

Today's Extremes

State Highs State Lows

Community

WunderPhotos

Upload Photos

1,745,807 photos uploaded!

WunderBlogs® & News

Nearby

Snow Depth

Station Depth Elevation
Willow Park 6 in 10700 ft
Lake Irene 0 in 10700 ft
Joe Wright 0 in 10120 ft
Berthoud Summit 0 in 11300 ft
Rawah 6 in 9020 ft

Earthquake Activity

City Distance Mag. Time & Date
No recent earthquake activity has been reported nearby.
Minimum magnitude displayed is 2.5.

Coastal Water Temperatures

Place Temperature
No Stations Reporting

Nearby Weather Stations